Time;durP1;ratioP1;P1;durP2;ratioP2;P2;SDS_P1;SDS_P2;PMS_P1;PMS_P2;Temp;Humidity;BMP_temperature;BMP_pressure;BME280_temperature;BME280_humidity;BME280_pressure;Samples;Min_cycle;Max_cycle;Signal;HPM_P1;HPM_P2
2024/03/05 00:00:10;;;;;;;;;0.33;0.00;;;;;21.96;39.72;100817.56;6400127;22;45286;-75
2024/03/05 00:02:38;;;;;;;;;0.33;0.00;;;;;22.03;39.81;100825.59;6399821;22;45228;-75
2024/03/05 00:05:03;;;;;;;;;1.00;1.00;;;;;22.03;39.46;100820.31;6399822;22;46142;-76
2024/03/05 00:07:29;;;;;;;;;1.00;1.00;;;;;22.02;39.80;100826.59;6399366;22;45274;-75
2024/03/05 00:09:54;;;;;;;;;2.00;1.00;;;;;22.01;39.15;100820.50;6400481;22;45278;-75
2024/03/05 00:12:20;;;;;;;;;0.33;0.33;;;;;22.02;39.24;100834.53;6399970;22;48696;-76
2024/03/05 00:14:45;;;;;;;;;0.00;0.00;;;;;22.02;39.44;100821.31;6399809;22;46946;-76
2024/03/05 00:17:12;;;;;;;;;1.00;1.00;;;;;22.00;39.60;100823.31;6399908;22;54522;-76
2024/03/05 00:19:37;;;;;;;;;1.00;1.00;;;;;21.99;39.62;100827.78;6400117;22;45279;-77
2024/03/05 00:22:03;;;;;;;;;1.00;1.00;;;;;21.99;39.16;100824.34;6399150;22;50410;-76
2024/03/05 00:24:28;;;;;;;;;2.00;0.00;;;;;21.98;39.36;100822.69;6399789;22;46825;-75
2024/03/05 00:26:53;;;;;;;;;1.00;1.00;;;;;21.99;39.53;100824.34;6399802;22;45235;-75
2024/03/05 00:29:19;;;;;;;;;0.00;0.00;;;;;21.91;39.28;100814.63;6400347;22;45310;-76
2024/03/05 00:31:44;;;;;;;;;2.00;1.00;;;;;21.98;39.24;100820.03;6399886;22;52906;-76
2024/03/05 00:34:09;;;;;;;;;0.67;0.67;;;;;21.90;39.39;100813.81;6399767;22;46888;-76
2024/03/05 00:36:34;;;;;;;;;1.00;1.00;;;;;21.98;38.95;100820.03;6399168;22;49935;-76
2024/03/05 00:39:00;;;;;;;;;1.00;1.00;;;;;21.98;39.02;100815.56;6399898;22;45746;-76
2024/03/05 00:41:25;;;;;;;;;1.00;1.00;;;;;21.89;39.34;100803.38;6399758;22;45567;-76
2024/03/05 00:43:52;;;;;;;;;1.00;1.00;;;;;21.95;39.28;100806.16;6399497;22;60308;-76
2024/03/05 00:46:17;;;;;;;;;0.67;0.00;;;;;21.97;39.03;100816.53;6400173;22;45334;-76
2024/03/05 00:48:42;;;;;;;;;1.00;0.00;;;;;21.95;39.33;100821.22;6400210;22;45290;-76
2024/03/05 00:51:08;;;;;;;;;0.00;0.00;;;;;21.97;38.94;100827.16;6400006;22;45369;-76
2024/03/05 00:53:34;;;;;;;;;0.33;0.33;;;;;21.91;38.84;100818.09;6399563;22;46047;-75
2024/03/05 00:55:59;;;;;;;;;1.00;1.00;;;;;21.96;39.50;100826.31;6400125;22;45237;-75
2024/03/05 00:58:24;;;;;;;;;0.00;0.00;;;;;21.89;38.82;100816.63;6400189;22;45197;-76
2024/03/05 01:00:50;;;;;;;;;1.00;1.00;;;;;21.96;39.25;100828.16;6399644;22;56174;-75
2024/03/05 01:03:15;;;;;;;;;1.00;1.00;;;;;21.95;39.37;100832.63;6399262;22;62292;-75
2024/03/05 01:05:42;;;;;;;;;0.00;0.00;;;;;21.95;39.41;100837.94;6398079;22;45294;-76
2024/03/05 01:08:07;;;;;;;;;2.00;1.00;;;;;21.92;38.91;100833.00;6399854;22;45188;-76
2024/03/05 01:10:33;;;;;;;;;0.00;0.00;;;;;21.94;39.29;100838.91;6399723;22;46247;-76
2024/03/05 01:12:58;;;;;;;;;0.67;0.67;;;;;21.65;38.91;100792.00;6399724;22;45475;-76
2024/03/05 01:15:24;;;;;;;;;1.00;1.00;;;;;21.94;39.29;100836.28;6399380;22;45365;-77
2024/03/05 01:17:49;;;;;;;;;1.00;1.00;;;;;21.94;39.29;100835.44;6399515;22;45192;-76
2024/03/05 01:20:18;;;;;;;;;0.00;0.00;;;;;21.94;38.98;100838.91;6399173;22;45171;-76
2024/03/05 01:22:46;;;;;;;;;0.00;0.00;;;;;21.93;39.23;100833.81;6399250;22;47527;-76
2024/03/05 01:25:12;;;;;;;;;1.33;0.67;;;;;21.92;38.87;100838.28;6399360;22;45291;-76
2024/03/05 01:27:40;;;;;;;;;2.00;0.00;;;;;21.93;39.13;100841.75;6399856;22;45256;-75
2024/03/05 01:30:11;;;;;;;;;0.00;0.00;;;;;21.92;39.22;100842.75;6399706;22;45206;-75
2024/03/05 01:32:38;;;;;;;;;1.00;0.00;;;;;21.93;39.25;100847.06;6399468;22;45273;-75
2024/03/05 01:35:08;;;;;;;;;0.67;0.67;;;;;21.92;39.26;100842.75;6398638;22;45221;-76
2024/03/05 01:37:34;;;;;;;;;0.67;0.67;;;;;21.92;39.26;100848.88;6399209;22;45471;-75
2024/03/05 01:39:59;;;;;;;;;1.33;0.00;;;;;21.92;38.81;100848.06;6399088;22;45432;-76
2024/03/05 01:42:25;;;;;;;;;2.00;1.00;;;;;21.92;39.35;100853.34;6399339;22;46182;-75
2024/03/05 01:44:50;;;;;;;;;1.00;0.00;;;;;21.91;38.80;100849.88;6398991;22;57048;-76
2024/03/05 01:47:16;;;;;;;;;1.00;1.00;;;;;21.81;39.43;100834.22;6399039;22;55102;-75
2024/03/05 01:49:41;;;;;;;;;0.00;0.00;;;;;21.91;39.21;100849.88;6398849;22;45390;-76
2024/03/05 01:52:07;;;;;;;;;0.00;0.00;;;;;21.91;38.91;100843.78;6398876;22;57457;-75
2024/03/05 01:54:32;;;;;;;;;1.00;1.00;;;;;21.91;39.16;100847.22;6398622;22;45405;-75
2024/03/05 01:57:03;;;;;;;;;0.33;0.33;;;;;21.83;39.13;100831.41;6399228;22;45264;-75
2024/03/05 01:59:28;;;;;;;;;2.00;1.00;;;;;21.91;38.67;100841.13;6399140;22;45313;-76
2024/03/05 02:01:56;;;;;;;;;0.00;0.00;;;;;21.90;39.33;100842.13;6398802;22;46780;-76
2024/03/05 02:04:23;;;;;;;;;0.67;0.67;;;;;21.45;38.49;100769.47;6398630;22;45319;-75
2024/03/05 02:06:51;;;;;;;;;1.00;0.33;;;;;21.91;38.75;100846.44;6370622;22;45250;-75
2024/03/05 02:09:17;;;;;;;;;1.00;1.00;;;;;21.91;38.86;100847.22;6398680;22;45401;-75
2024/03/05 02:11:43;;;;;;;;;0.00;0.00;;;;;21.91;39.20;100851.72;6398706;22;47254;-75
2024/03/05 02:14:10;;;;;;;;;1.00;1.00;;;;;21.87;38.84;100842.44;6398801;22;45346;-75
2024/03/05 02:16:36;;;;;;;;;0.33;0.33;;;;;21.88;39.08;100841.47;6399157;22;45412;-75
2024/03/05 02:19:04;;;;;;;;;0.33;0.33;;;;;21.72;39.11;100811.47;6400400;22;45276;-76
2024/03/05 02:21:31;;;;;;;;;0.00;0.00;;;;;21.83;39.03;100824.25;6400308;22;46042;-75
2024/03/05 02:23:57;;;;;;;;;0.33;0.00;;;;;21.91;38.80;100838.47;6400487;22;45374;-75
2024/03/05 02:26:24;;;;;;;;;2.00;0.00;;;;;21.84;38.79;100828.56;6400554;22;45197;-75
2024/03/05 02:28:50;;;;;;;;;0.00;0.00;;;;;21.91;38.67;100836.63;6400858;22;45289;-75
2024/03/05 02:31:15;;;;;;;;;0.00;0.00;;;;;21.81;39.24;100818.31;6400160;22;45883;-75
2024/03/05 02:33:42;;;;;;;;;0.00;0.00;;;;;21.84;38.70;100836.50;6400194;22;55873;-75
2024/03/05 02:36:08;;;;;;;;;0.67;0.67;;;;;21.85;38.73;100837.34;6401347;22;45280;-76
2024/03/05 02:38:34;;;;;;;;;0.67;0.67;;;;;21.90;38.78;100842.94;6400260;22;45223;-76
2024/03/05 02:40:59;;;;;;;;;0.00;0.00;;;;;21.91;39.21;100841.13;6400060;22;46060;-76
2024/03/05 02:43:25;;;;;;;;;1.00;1.00;;;;;21.91;39.20;100843.78;6400200;22;56579;-75
2024/03/05 02:45:50;;;;;;;;;0.00;0.00;;;;;21.90;38.69;100842.94;6400099;22;45240;-75
2024/03/05 02:48:16;;;;;;;;;1.00;1.00;;;;;21.88;39.17;100842.31;6400511;22;45336;-75
2024/03/05 02:50:42;;;;;;;;;1.33;0.67;;;;;21.89;39.20;100849.22;6400611;22;45346;-76
2024/03/05 02:53:07;;;;;;;;;1.00;1.00;;;;;21.84;38.64;100836.50;6400768;22;45352;-75
2024/03/05 02:55:37;;;;;;;;;0.00;0.00;;;;;21.82;39.09;100840.34;6400433;22;55760;-75
2024/03/05 02:58:03;;;;;;;;;0.00;0.00;;;;;21.87;38.68;100848.59;6400323;22;45440;-75
2024/03/05 03:00:29;;;;;;;;;1.00;1.00;;;;;21.88;38.68;100846.78;6399459;22;46145;-75
2024/03/05 03:02:54;;;;;;;;;0.33;0.33;;;;;21.83;39.05;100842.78;6400600;22;45229;-75
2024/03/05 03:05:21;;;;;;;;;0.67;0.67;;;;;21.88;39.25;100847.59;6400796;22;45634;-76
2024/03/05 03:07:47;;;;;;;;;0.00;0.00;;;;;21.81;39.00;100834.22;6400557;22;45356;-75
2024/03/05 03:10:12;;;;;;;;;0.33;0.33;;;;;21.88;38.82;100844.97;6400280;22;45268;-75
2024/03/05 03:12:41;;;;;;;;;0.67;0.00;;;;;21.88;39.08;100847.59;6400538;22;45267;-76
2024/03/05 03:15:07;;;;;;;;;1.33;0.00;;;;;21.87;38.96;100843.28;6400426;22;45302;-75
2024/03/05 03:17:33;;;;;;;;;2.00;1.00;;;;;21.87;38.77;100839.78;6400650;22;45441;-76
2024/03/05 03:19:59;;;;;;;;;0.00;0.00;;;;;21.81;38.92;100834.22;6399947;22;47289;-75
2024/03/05 03:22:26;;;;;;;;;0.67;0.67;;;;;21.87;38.73;100843.28;6400301;22;45279;-75
2024/03/05 03:24:52;;;;;;;;;0.00;0.00;;;;;21.87;38.94;100837.13;6400435;22;45264;-76
2024/03/05 03:27:17;;;;;;;;;0.00;0.00;;;;;21.85;38.95;100832.88;6400425;22;45305;-75
2024/03/05 03:29:42;;;;;;;;;0.00;0.00;;;;;21.79;38.58;100817.69;6398842;22;46186;-75
2024/03/05 03:32:10;;;;;;;;;0.33;0.33;;;;;21.78;38.96;100813.38;6400274;22;53718;-75
2024/03/05 03:34:36;;;;;;;;;1.00;1.00;;;;;21.81;38.78;100822.78;6400263;22;45346;-75
2024/03/05 03:37:02;;;;;;;;;0.00;0.00;;;;;21.87;38.58;100835.34;6400099;22;45243;-75
2024/03/05 03:39:27;;;;;;;;;0.00;0.00;;;;;21.87;39.01;100831.84;6400052;22;47027;-75
2024/03/05 03:41:54;;;;;;;;;1.00;1.00;;;;;21.86;38.56;100831.00;6399848;22;45283;-76
2024/03/05 03:44:21;;;;;;;;;0.00;0.00;;;;;21.87;39.04;100839.78;6399902;22;45184;-76
2024/03/05 03:46:46;;;;;;;;;0.00;0.00;;;;;21.88;39.17;100833.53;6400212;22;45223;-75
2024/03/05 03:49:11;;;;;;;;;0.00;0.00;;;;;21.83;38.62;100834.84;6400286;22;45543;-75
2024/03/05 03:51:38;;;;;;;;;1.00;1.00;;;;;21.79;38.83;100827.44;6400226;22;49392;-75
2024/03/05 03:54:04;;;;;;;;;1.00;0.00;;;;;21.83;38.87;100842.00;6400254;22;45327;-75
2024/03/05 03:56:30;;;;;;;;;0.00;0.00;;;;;21.79;38.60;100830.09;6399971;22;45245;-75
2024/03/05 03:58:56;;;;;;;;;2.00;1.00;;;;;21.88;38.60;100847.59;6399323;22;46836;-75
2024/03/05 04:01:22;;;;;;;;;0.00;0.00;;;;;21.88;38.69;100850.25;6400228;22;45255;-75
2024/03/05 04:03:48;;;;;;;;;0.67;0.67;;;;;21.88;39.11;100844.13;6400208;22;45235;-75
2024/03/05 04:06:14;;;;;;;;;0.00;0.00;;;;;21.88;39.11;100854.72;6400586;22;45269;-75
2024/03/05 04:08:40;;;;;;;;;0.00;0.00;;;;;21.78;39.00;100831.91;6399847;22;46135;-75
2024/03/05 04:11:06;;;;;;;;;0.00;0.00;;;;;21.88;39.06;100852.06;6400331;22;45272;-75
2024/03/05 04:13:31;;;;;;;;;0.00;0.00;;;;;21.87;38.92;100858.34;6371694;22;45746;-76
2024/03/05 04:15:57;;;;;;;;;1.00;1.00;;;;;21.86;38.48;100860.16;6400081;22;45424;-76
2024/03/05 04:18:22;;;;;;;;;0.67;0.33;;;;;21.84;38.61;100851.56;6399812;22;46681;-75
2024/03/05 04:20:48;;;;;;;;;0.00;0.00;;;;;21.83;38.78;100849.94;6400450;22;45283;-75
2024/03/05 04:23:13;;;;;;;;;1.00;1.00;;;;;21.86;39.07;100854.84;6400064;22;48161;-76
2024/03/05 04:25:41;;;;;;;;;1.33;0.00;;;;;21.85;38.61;100850.56;6400534;22;45307;-75
2024/03/05 04:28:12;;;;;;;;;1.33;0.33;;;;;21.85;38.58;100851.41;6399966;22;45339;-75
2024/03/05 04:30:48;;;;;;;;;1.00;1.00;;;;;21.83;38.95;100853.38;6400071;22;45303;-75
2024/03/05 04:33:15;;;;;;;;;0.00;0.00;;;;;21.77;38.93;100843.53;6400072;22;45339;-75
2024/03/05 04:35:42;;;;;;;;;0.00;0.00;;;;;21.84;38.54;100855.03;6399771;22;45333;-74
2024/03/05 04:38:08;;;;;;;;;0.00;0.00;;;;;21.85;39.20;100855.88;6399569;22;46247;-75
2024/03/05 04:40:37;;;;;;;;;1.00;1.00;;;;;21.85;38.96;100853.22;6399954;22;45342;-75
2024/03/05 04:43:03;;;;;;;;;0.00;0.00;;;;;21.85;38.70;100855.88;6399764;22;45255;-74
2024/03/05 04:45:29;;;;;;;;;0.00;0.00;;;;;21.83;39.00;100858.69;6400279;22;45275;-75
2024/03/05 04:47:55;;;;;;;;;1.00;0.00;;;;;21.84;39.10;100863.00;6399953;22;46367;-76
2024/03/05 04:50:20;;;;;;;;;0.33;0.33;;;;;21.83;39.01;100861.31;6399914;22;45254;-75
2024/03/05 04:52:47;;;;;;;;;0.00;0.00;;;;;21.84;38.96;100863.00;6399891;22;45329;-76
2024/03/05 04:55:14;;;;;;;;;1.00;1.00;;;;;21.84;38.75;100856.88;6399724;22;45464;-75
2024/03/05 04:57:40;;;;;;;;;1.00;1.00;;;;;21.79;38.47;100861.88;6399507;22;46458;-75
2024/03/05 05:00:19;;;;;;;;;0.00;0.00;;;;;21.83;38.62;100868.47;6371573;22;45252;-75
2024/03/05 05:02:51;;;;;;;;;0.00;0.00;;;;;21.82;38.90;100857.06;6399686;22;45296;-75
2024/03/05 05:05:18;;;;;;;;;0.00;0.00;;;;;21.81;38.63;100867.81;6399552;22;45346;-75
2024/03/05 05:07:44;;;;;;;;;0.00;0.00;;;;;21.83;38.58;100865.81;6399719;22;46013;-75
2024/03/05 05:10:10;;;;;;;;;1.00;1.00;;;;;21.83;38.59;100868.47;6399969;22;45354;-75
2024/03/05 05:12:38;;;;;;;;;1.00;1.00;;;;;21.83;38.66;100865.81;6399550;22;45422;-74
2024/03/05 05:15:05;;;;;;;;;0.00;0.00;;;;;21.83;39.02;100861.31;6399486;22;45247;-75
2024/03/05 05:17:31;;;;;;;;;1.00;1.00;;;;;21.82;39.01;100864.16;6399863;22;46026;-75
2024/03/05 05:19:56;;;;;;;;;0.67;0.67;;;;;21.84;38.87;100867.47;6399516;22;45320;-74
2024/03/05 05:22:21;;;;;;;;;1.00;1.00;;;;;21.83;38.63;100863.19;6399551;22;49555;-76
2024/03/05 05:24:47;;;;;;;;;0.00;0.00;;;;;21.80;38.99;100856.41;6399395;22;45379;-76
2024/03/05 05:27:12;;;;;;;;;1.00;1.00;;;;;21.84;39.00;100863.00;6398458;22;65603;-76
2024/03/05 05:29:37;;;;;;;;;0.00;0.00;;;;;21.77;38.59;100853.28;6399836;22;45270;-75
2024/03/05 05:32:06;;;;;;;;;1.67;1.67;;;;;21.84;38.65;100859.50;6399182;22;48996;-75
2024/03/05 05:34:32;;;;;;;;;0.00;0.00;;;;;21.79;38.73;100852.09;6400011;22;45367;-75
2024/03/05 05:36:57;;;;;;;;;2.00;0.67;;;;;21.83;38.89;100866.63;6399711;22;45254;-75
2024/03/05 05:39:24;;;;;;;;;0.00;0.00;;;;;21.85;39.09;100869.13;6399404;22;45181;-74
2024/03/05 05:41:51;;;;;;;;;0.00;0.00;;;;;21.84;39.02;100873.59;6398791;22;45256;-75
2024/03/05 05:44:17;;;;;;;;;0.00;0.00;;;;;21.73;39.13;100856.28;6370685;22;45337;-75
2024/03/05 05:46:42;;;;;;;;;2.00;1.00;;;;;21.84;38.79;100875.41;6399049;22;46267;-76
2024/03/05 05:49:08;;;;;;;;;1.00;0.67;;;;;21.84;39.01;100872.75;6399520;22;45291;-76
2024/03/05 05:51:33;;;;;;;;;0.00;0.00;;;;;21.83;39.02;100881.72;6400112;22;45279;-75
2024/03/05 05:54:00;;;;;;;;;0.00;0.00;;;;;21.83;38.71;100882.53;6400513;22;45338;-75
2024/03/05 05:56:26;;;;;;;;;1.00;0.00;;;;;21.76;38.74;100876.28;6400006;22;46104;-75
2024/03/05 05:58:51;;;;;;;;;3.00;1.67;;;;;21.71;38.62;100866.22;6400940;22;45376;-75
2024/03/05 06:01:16;;;;;;;;;0.00;0.00;;;;;21.83;38.71;100882.53;6401250;22;45283;-75
2024/03/05 06:03:45;;;;;;;;;1.00;1.00;;;;;21.82;39.02;100886.19;6400611;22;45413;-76
2024/03/05 06:06:16;;;;;;;;;0.00;0.00;;;;;21.82;39.11;100882.72;6401138;22;45406;-75
2024/03/05 06:08:41;;;;;;;;;0.00;0.00;;;;;21.79;38.81;100875.94;6399886;22;45291;-75
2024/03/05 06:11:07;;;;;;;;;0.00;0.00;;;;;21.76;38.76;100875.47;6400768;22;45345;-75
2024/03/05 06:13:32;;;;;;;;;0.33;0.33;;;;;21.80;38.95;100890.84;6400790;22;45353;-75
2024/03/05 06:15:58;;;;;;;;;1.00;1.00;;;;;21.82;38.74;100895.94;6400637;22;45967;-75
2024/03/05 06:18:24;;;;;;;;;0.00;0.00;;;;;21.81;38.65;100897.78;6400811;22;45285;-75
2024/03/05 06:20:49;;;;;;;;;1.67;1.00;;;;;21.70;39.08;100885.75;6401070;22;45212;-76
2024/03/05 06:23:15;;;;;;;;;0.00;0.00;;;;;21.80;38.73;100896.13;6371407;22;45250;-75
2024/03/05 06:25:40;;;;;;;;;0.00;0.00;;;;;21.73;39.06;100880.13;6371967;22;47200;-75
2024/03/05 06:28:09;;;;;;;;;2.00;1.00;;;;;21.82;38.89;100903.91;6400361;22;45227;-74
2024/03/05 06:30:35;;;;;;;;;0.33;0.33;;;;;21.82;39.12;100911.84;6400996;22;45361;-75
2024/03/05 06:33:00;;;;;;;;;0.00;0.00;;;;;21.83;38.57;100902.91;6400955;22;45390;-75
2024/03/05 06:35:28;;;;;;;;;0.67;0.00;;;;;21.80;39.10;100912.03;6400921;22;46016;-75
2024/03/05 06:37:54;;;;;;;;;0.00;0.00;;;;;21.83;38.75;100913.50;6399814;22;45268;-75
2024/03/05 06:40:20;;;;;;;;;1.00;0.33;;;;;21.77;38.85;100908.91;6400483;22;45200;-75
2024/03/05 06:43:03;;;;;;;;;1.00;1.00;;;;;21.84;38.63;100915.13;6400891;22;45289;-75
2024/03/05 06:45:29;;;;;;;;;1.00;1.00;;;;;21.84;38.57;100923.06;6400342;22;46903;-75
2024/03/05 06:47:56;;;;;;;;;1.00;1.00;;;;;21.83;38.56;100926.75;6400231;22;45271;-75
2024/03/05 06:50:23;;;;;;;;;0.33;0.33;;;;;21.71;38.47;100911.25;6400759;22;45268;-75
2024/03/05 06:58:20;;;;;;;;;0.00;0.00;;;;;21.78;39.00;100932.53;6400548;22;45299;-76
2024/03/05 07:00:46;;;;;;;;;1.00;1.00;;;;;21.83;38.64;100940.00;6400113;22;45221;-75
2024/03/05 07:03:13;;;;;;;;;0.00;0.00;;;;;21.84;38.61;100936.31;6400714;22;45250;-76
2024/03/05 07:05:38;;;;;;;;;1.67;1.00;;;;;21.84;38.82;100946.91;6400037;22;46223;-74
2024/03/05 07:08:05;;;;;;;;;0.00;0.00;;;;;21.84;39.02;100944.25;6399540;22;45279;-72
2024/03/05 07:10:31;;;;;;;;;2.00;0.33;;;;;21.82;38.75;100941.81;6400267;22;45273;-75
2024/03/05 07:12:57;;;;;;;;;0.67;0.67;;;;;21.83;39.17;100945.28;6399285;22;45158;-75
2024/03/05 07:15:23;;;;;;;;;1.00;0.00;;;;;21.81;38.88;100939.31;6398882;22;46147;-74
2024/03/05 07:17:49;;;;;;;;;1.67;0.00;;;;;21.70;39.12;100927.31;6399235;22;45290;-74
2024/03/05 07:20:27;;;;;;;;;0.00;0.00;;;;;21.86;39.37;100947.56;6399476;22;45651;-73
2024/03/05 07:22:54;;;;;;;;;2.00;0.00;;;;;21.75;39.01;100930.28;6398840;22;45178;-71
2024/03/05 07:25:21;;;;;;;;;0.00;0.00;;;;;21.88;39.61;100944.78;6399069;22;47041;-75
2024/03/05 07:27:49;;;;;;;;;0.00;0.00;;;;;21.89;39.54;100949.06;6399692;22;45161;-75
2024/03/05 07:30:20;;;;;;;;;0.67;0.67;;;;;21.89;39.45;100952.53;6400385;22;45260;-76
2024/03/05 07:32:46;;;;;;;;;0.00;0.00;;;;;21.93;39.61;100960.97;6400129;22;45386;-75
2024/03/05 07:35:12;;;;;;;;;0.33;0.00;;;;;21.94;39.21;100957.31;6400120;22;46058;-75
2024/03/05 07:37:39;;;;;;;;;0.33;0.00;;;;;21.94;39.32;100958.13;6399578;22;45291;-75
2024/03/05 07:40:16;;;;;;;;;0.33;0.33;;;;;21.94;39.66;100959.94;6399635;22;45285;-76
2024/03/05 07:42:44;;;;;;;;;0.00;0.00;;;;;21.90;39.62;100956.03;6397357;22;45351;-76
2024/03/05 07:45:12;;;;;;;;;1.33;0.33;;;;;21.91;39.60;100958.47;6388187;22;46068;-76
2024/03/05 07:47:37;;;;;;;;;1.00;1.00;;;;;21.92;39.74;100960.13;6395243;22;45347;-75
2024/03/05 07:50:04;;;;;;;;;1.00;0.33;;;;;21.93;39.30;100975.03;6395263;22;45253;-76
2024/03/05 07:52:30;;;;;;;;;0.00;0.00;;;;;21.93;39.38;100971.56;6395224;22;45423;-75
2024/03/05 07:54:55;;;;;;;;;0.00;0.00;;;;;21.90;39.36;100963.97;6395487;22;46846;-75
2024/03/05 07:57:21;;;;;;;;;0.00;0.00;;;;;21.92;39.64;100975.19;6396451;22;45256;-75
2024/03/05 07:59:47;;;;;;;;;2.67;0.00;;;;;21.92;39.26;100983.16;6396813;22;45228;-75
2024/03/05 08:02:13;;;;;;;;;0.67;0.67;;;;;21.92;39.38;100981.31;6396590;22;45890;-75
2024/03/05 08:04:39;;;;;;;;;0.00;0.00;;;;;21.90;39.65;100983.34;6395217;22;47196;-74
2024/03/05 08:07:06;;;;;;;;;2.00;0.00;;;;;21.91;39.21;100981.53;6395977;22;45698;-75
2024/03/05 08:09:35;;;;;;;;;0.67;0.67;;;;;21.90;39.22;100988.63;6396004;22;45526;-75
2024/03/05 08:12:00;;;;;;;;;0.67;0.00;;;;;21.85;39.42;100990.97;6395888;22;45422;-76
2024/03/05 08:14:26;;;;;;;;;0.33;0.33;;;;;21.87;39.79;100988.13;6395491;22;46852;-75
2024/03/05 08:16:51;;;;;;;;;1.00;1.00;;;;;21.83;39.33;100983.16;6396141;22;45451;-75
2024/03/05 08:19:17;;;;;;;;;2.00;0.67;;;;;21.85;39.61;100990.97;6395762;22;45517;-74
2024/03/05 08:21:42;;;;;;;;;0.33;0.33;;;;;21.58;39.19;100950.72;6395752;22;45593;-75
2024/03/05 08:24:09;;;;;;;;;1.00;1.00;;;;;21.81;39.13;100990.47;6395354;22;51160;-74
2024/03/05 08:26:34;;;;;;;;;0.00;0.00;;;;;21.83;39.29;100998.25;6396116;22;45391;-75
2024/03/05 08:29:00;;;;;;;;;0.00;0.00;;;;;21.91;39.07;101015.94;6395570;22;45414;-74
2024/03/05 08:31:25;;;;;;;;;0.67;0.00;;;;;21.81;38.97;100995.75;6396005;22;45181;-75
2024/03/05 08:33:51;;;;;;;;;0.00;0.00;;;;;21.92;38.92;101017.59;6395256;22;46347;-75
2024/03/05 08:36:16;;;;;;;;;1.00;1.00;;;;;21.92;39.37;101017.59;6396561;22;45216;-75
2024/03/05 08:38:41;;;;;;;;;1.00;0.00;;;;;21.90;39.50;101025.72;6395424;22;49912;-75
2024/03/05 08:41:06;;;;;;;;;1.33;1.33;;;;;21.92;39.24;101026.38;6395294;22;61992;-75
2024/03/05 08:43:32;;;;;;;;;0.33;0.33;;;;;21.93;39.33;101032.50;6395712;22;53195;-76
2024/03/05 08:45:57;;;;;;;;;1.00;1.00;;;;;21.87;38.55;101030.50;6395346;22;57410;-74
2024/03/05 08:48:23;;;;;;;;;1.33;1.00;;;;;21.79;39.08;101024.25;6395682;22;45367;-75
2024/03/05 08:50:48;;;;;;;;;1.00;0.67;;;;;21.92;39.11;101038.78;6396905;22;45253;-76
2024/03/05 08:53:14;;;;;;;;;0.00;0.00;;;;;21.79;39.59;101031.38;6395447;22;59413;-76
2024/03/05 08:55:39;;;;;;;;;0.00;0.00;;;;;21.79;39.75;101021.59;6395623;22;45371;-75
2024/03/05 08:58:04;;;;;;;;;0.00;0.00;;;;;21.91;39.14;101048.53;6367708;22;45878;-75
2024/03/05 09:00:33;;;;;;;;;0.00;0.00;;;;;21.80;39.03;101036.50;6395714;22;45386;-75
2024/03/05 09:02:58;;;;;;;;;0.00;0.00;;;;;21.91;39.47;101053.03;6395230;22;46051;-75
2024/03/05 09:05:24;;;;;;;;;0.00;0.00;;;;;21.77;39.44;101031.56;6396005;22;45303;-75
2024/03/05 09:07:50;;;;;;;;;1.00;0.67;;;;;21.91;39.39;101053.03;6395789;22;45349;-76
2024/03/05 09:10:17;;;;;;;;;1.00;0.00;;;;;21.90;39.06;101061.97;6395968;22;45407;-75
2024/03/05 09:12:43;;;;;;;;;0.00;0.00;;;;;21.83;39.32;101046.72;6394992;22;47248;-74
2024/03/05 09:15:09;;;;;;;;;0.67;0.00;;;;;21.90;39.66;101065.44;6395045;22;45334;-75
2024/03/05 09:17:35;;;;;;;;;0.00;0.00;;;;;21.78;38.98;101046.44;6395370;22;45342;-74
2024/03/05 09:20:13;;;;;;;;;0.33;0.33;;;;;21.90;39.50;101067.28;6395234;22;45484;-76
2024/03/05 09:22:40;;;;;;;;;1.00;1.00;;;;;21.89;39.55;101063.78;6395111;22;46633;-75
2024/03/05 09:25:06;;;;;;;;;0.00;0.00;;;;;21.90;39.40;101068.09;6394691;22;45390;-75
2024/03/05 09:27:32;;;;;;;;;0.00;0.00;;;;;21.90;39.11;101073.41;6395263;22;45278;-76
2024/03/05 09:29:57;;;;;;;;;1.00;1.00;;;;;21.89;39.59;101079.69;6396126;22;55789;-75
2024/03/05 09:32:24;;;;;;;;;1.67;1.00;;;;;21.88;39.56;101079.88;6396118;22;57154;-75
2024/03/05 09:34:49;;;;;;;;;1.00;1.00;;;;;21.90;39.65;101081.34;6396282;22;45645;-76
2024/03/05 09:37:14;;;;;;;;;1.00;1.00;;;;;21.79;39.59;101066.63;6397559;22;45600;-76
2024/03/05 09:39:40;;;;;;;;;0.00;0.00;;;;;21.90;39.69;101083.16;6395546;22;60939;-75
2024/03/05 09:42:09;;;;;;;;;0.67;0.67;;;;;21.90;39.40;101096.41;6395990;22;60268;-75
2024/03/05 09:44:37;;;;;;;;;3.00;1.00;;;;;21.80;39.46;101078.06;6396722;22;45296;-76
2024/03/05 09:47:03;;;;;;;;;1.00;1.00;;;;;21.90;39.21;101101.72;6396169;22;45284;-75
2024/03/05 09:49:29;;;;;;;;;0.00;0.00;;;;;21.77;39.64;101081.03;6396421;22;45380;-75
2024/03/05 09:51:55;;;;;;;;;0.00;0.00;;;;;21.81;39.45;101101.72;6395673;22;46923;-76
2024/03/05 09:54:20;;;;;;;;;1.67;1.00;;;;;21.77;39.46;101089.00;6396262;22;45372;-75
2024/03/05 09:56:46;;;;;;;;;0.67;0.00;;;;;21.90;39.07;101122.91;6396646;22;45696;-76
2024/03/05 09:59:16;;;;;;;;;2.67;1.00;;;;;21.90;38.93;101118.44;6396332;22;45566;-75
2024/03/05 10:01:43;;;;;;;;;3.00;0.00;;;;;21.84;39.15;101114.63;6396170;22;45742;-76
2024/03/05 10:04:12;;;;;;;;;1.00;1.00;;;;;21.89;39.48;101122.06;6396080;22;45334;-76
2024/03/05 10:06:38;;;;;;;;;2.00;0.33;;;;;21.89;39.00;101123.88;6395807;22;45233;-74
2024/03/05 10:09:05;;;;;;;;;0.00;0.00;;;;;21.84;39.05;101119.91;6395954;22;45382;-76
2024/03/05 10:11:31;;;;;;;;;1.00;1.00;;;;;21.90;39.19;101126.38;6396198;22;47198;-76
2024/03/05 10:14:04;;;;;;;;;0.00;0.00;;;;;21.88;39.39;101132.84;6396385;22;45276;-75
2024/03/05 10:16:29;;;;;;;;;1.00;1.00;;;;;21.90;39.32;101141.44;6396032;22;45398;-75
2024/03/05 10:18:55;;;;;;;;;0.00;0.00;;;;;21.79;38.81;101122.25;6395442;22;59621;-76
2024/03/05 10:21:22;;;;;;;;;2.00;1.00;;;;;21.91;39.19;101140.47;6396098;22;46022;-75
2024/03/05 10:24:04;;;;;;;;;1.00;1.00;;;;;21.91;38.93;101137.81;6396661;22;45386;-75
2024/03/05 10:26:31;;;;;;;;;1.00;0.00;;;;;21.91;39.46;101143.09;6396598;22;45238;-76
2024/03/05 10:28:58;;;;;;;;;0.00;0.00;;;;;21.82;39.13;101135.16;6396517;22;45272;-76
2024/03/05 10:31:29;;;;;;;;;2.00;0.33;;;;;21.91;38.86;101148.41;6396656;22;45390;-75
2024/03/05 10:33:56;;;;;;;;;0.00;0.00;;;;;21.91;39.14;101151.84;6396527;22;45356;-76
2024/03/05 10:36:47;;;;;;;;;0.00;0.00;;;;;21.92;38.91;101152.69;6396662;22;45335;-76
2024/03/05 10:39:13;;;;;;;;;1.00;1.00;;;;;21.82;39.42;101140.44;6389564;22;45238;-75
2024/03/05 10:41:40;;;;;;;;;2.00;1.00;;;;;21.91;38.89;101154.50;6395820;22;46866;-75
2024/03/05 10:44:08;;;;;;;;;1.00;1.00;;;;;21.92;38.99;101156.16;6394768;22;45710;-76
2024/03/05 10:46:35;;;;;;;;;0.00;0.00;;;;;21.93;39.32;101157.84;6396467;22;45812;-74
2024/03/05 10:49:03;;;;;;;;;0.00;0.00;;;;;21.93;39.06;101159.66;6396520;22;45288;-75
2024/03/05 10:51:31;;;;;;;;;1.00;0.67;;;;;21.93;39.28;101159.66;6396149;22;47126;-75
2024/03/05 10:54:00;;;;;;;;;1.00;0.67;;;;;21.94;39.03;101163.94;6396582;22;45346;-76
2024/03/05 10:56:26;;;;;;;;;1.33;1.33;;;;;21.94;39.48;101169.22;6396445;22;45357;-75
2024/03/05 11:01:37;;;;;;;;;0.00;0.00;;;;;21.87;39.31;101176.19;6396650;22;45313;-75
2024/03/05 11:04:10;;;;;;;;;2.00;2.00;;;;;21.95;39.41;101184.13;6395826;22;45334;-75
2024/03/05 11:06:36;;;;;;;;;3.33;1.00;;;;;21.95;39.17;101184.97;6396908;22;45278;-76
2024/03/05 11:09:03;;;;;;;;;1.00;1.00;;;;;21.87;39.21;101177.03;6395914;22;45477;-76
2024/03/05 11:11:29;;;;;;;;;0.67;0.67;;;;;21.89;39.12;101185.66;6395540;22;46572;-75
2024/03/05 11:13:58;;;;;;;;;0.00;0.00;;;;;21.97;39.06;101190.09;6396231;22;45429;-76
2024/03/05 11:16:23;;;;;;;;;0.00;0.00;;;;;21.94;39.56;101187.78;6396542;22;45804;-75
2024/03/05 11:18:51;;;;;;;;;0.00;0.00;;;;;21.91;38.95;101185.50;6396456;22;45271;-76
2024/03/05 11:21:17;;;;;;;;;0.67;0.67;;;;;21.99;39.11;101195.22;6396113;22;47327;-76
2024/03/05 11:23:51;;;;;;;;;0.00;0.00;;;;;21.99;38.96;101200.53;6396174;22;45856;-75
2024/03/05 11:26:18;;;;;;;;;0.00;0.00;;;;;22.00;39.30;101207.47;6396356;22;45245;-75
2024/03/05 11:28:43;;;;;;;;;0.00;0.00;;;;;21.80;38.91;101173.41;6396106;22;45480;-75